createdAt,value
2023-02-14T00:01:10.831Z,6.15
2023-02-14T00:03:38.039Z,6.13
2023-02-14T00:06:09.197Z,6.07
2023-02-14T00:08:36.817Z,6.08
2023-02-14T00:11:05.492Z,6.16
2023-02-14T00:13:32.653Z,6.14
2023-02-14T00:15:59.508Z,6.15
2023-02-14T00:18:46.760Z,6.02
2023-02-14T00:21:13.424Z,5.98
2023-02-14T00:23:40.655Z,5.94
2023-02-14T00:26:14.025Z,5.94
2023-02-14T00:28:40.691Z,6.06
2023-02-14T00:31:07.475Z,6.09
2023-02-14T00:33:34.309Z,6.00
2023-02-14T00:36:07.410Z,6.03
2023-02-14T00:38:35.048Z,6.08
2023-02-14T00:41:02.413Z,5.94
2023-02-14T00:43:29.726Z,5.86
2023-02-14T00:45:56.909Z,5.97
2023-02-14T00:48:23.763Z,6.03
2023-02-14T00:50:50.430Z,6.08
2023-02-14T00:53:17.319Z,6.06
2023-02-14T00:55:46.660Z,5.99
2023-02-14T00:58:13.454Z,6.01
2023-02-14T01:00:40.359Z,6.04
2023-02-14T01:03:07.431Z,6.01
2023-02-14T01:05:34.176Z,5.91
2023-02-14T01:08:00.865Z,5.90
2023-02-14T01:10:27.684Z,5.92
2023-02-14T01:12:54.468Z,5.95
2023-02-14T01:15:21.224Z,5.98
2023-02-14T01:17:47.912Z,5.98
2023-02-14T01:20:14.808Z,5.87
2023-02-14T01:22:42.400Z,5.85
2023-02-14T01:25:09.312Z,5.85
2023-02-14T01:27:37.544Z,5.86
2023-02-14T01:30:05.493Z,5.80
2023-02-14T01:32:35.775Z,5.84
2023-02-14T01:35:02.617Z,5.85
2023-02-14T01:37:31.253Z,5.91
2023-02-14T01:39:59.110Z,5.77
2023-02-14T01:42:25.962Z,6.00
2023-02-14T01:45:07.054Z,5.85
2023-02-14T01:47:38.964Z,5.92
2023-02-14T01:50:33.577Z,6.19
2023-02-14T01:53:05.389Z,6.04
2023-02-14T01:55:36.392Z,6.02
2023-02-14T01:58:11.830Z,5.98
2023-02-14T02:00:59.181Z,6.01
2023-02-14T02:03:33.160Z,6.01
2023-02-14T02:06:31.011Z,5.99
2023-02-14T02:09:20.576Z,5.89
2023-02-14T02:11:49.828Z,5.86
2023-02-14T02:14:19.999Z,5.81
2023-02-14T02:17:27.608Z,5.76
2023-02-14T02:20:13.412Z,5.79
2023-02-14T02:23:05.727Z,5.80
2023-02-14T02:26:10.530Z,5.88
2023-02-14T02:28:49.457Z,5.72
2023-02-14T02:31:38.382Z,5.64
2023-02-14T02:34:50.600Z,5.67
2023-02-14T02:37:41.791Z,5.68
2023-02-14T02:40:39.839Z,5.66
2023-02-14T02:43:35.588Z,5.71
2023-02-14T02:46:39.123Z,5.68
2023-02-14T02:49:52.086Z,5.75
2023-02-14T02:53:03.122Z,5.59
2023-02-14T02:55:59.631Z,5.74
2023-02-14T02:58:32.589Z,5.73
2023-02-14T03:01:04.519Z,5.58
2023-02-14T03:03:52.065Z,5.58
2023-02-14T03:06:20.820Z,5.59
2023-02-14T03:08:47.622Z,5.64
2023-02-14T03:11:18.609Z,5.60
2023-02-14T03:13:52.117Z,5.59
2023-02-14T03:16:22.104Z,5.43
2023-02-14T03:19:44.960Z,5.50
2023-02-14T03:22:41.044Z,5.53
2023-02-14T03:25:21.471Z,5.57
2023-02-14T03:28:22.075Z,5.64
2023-02-14T03:31:03.001Z,5.63
2023-02-14T03:34:07.471Z,5.63
2023-02-14T03:37:25.551Z,5.72
2023-02-14T03:40:01.286Z,5.80
2023-02-14T03:42:35.234Z,5.71
2023-02-14T03:45:06.226Z,5.66
2023-02-14T03:47:36.158Z,5.54
2023-02-14T03:50:11.909Z,5.55
2023-02-14T03:52:41.137Z,5.71
2023-02-14T03:55:09.872Z,5.59
2023-02-14T03:57:52.322Z,5.36
2023-02-14T04:00:19.936Z,5.28
2023-02-14T04:02:50.961Z,5.33
2023-02-14T04:05:21.541Z,5.22
2023-02-14T04:07:51.994Z,5.21
2023-02-14T04:10:19.946Z,5.23
2023-02-14T04:12:47.460Z,5.28
2023-02-14T04:15:17.229Z,5.26
2023-02-14T04:18:03.227Z,5.20
2023-02-14T04:20:30.623Z,5.29
2023-02-14T04:22:57.677Z,5.17
2023-02-14T04:25:24.383Z,5.22
2023-02-14T04:27:51.167Z,5.13
2023-02-14T04:30:18.470Z,5.20
2023-02-14T04:32:45.302Z,5.18
2023-02-14T04:35:12.291Z,5.10
2023-02-14T04:37:39.495Z,5.13
2023-02-14T04:40:06.942Z,5.15
2023-02-14T04:42:33.963Z,5.18
2023-02-14T04:45:03.137Z,5.15
2023-02-14T04:47:30.821Z,5.25
2023-02-14T04:49:57.623Z,5.21
2023-02-14T04:52:24.565Z,5.05
2023-02-14T04:54:51.237Z,4.94
2023-02-14T04:57:18.457Z,5.06
2023-02-14T04:59:45.162Z,4.94
2023-02-14T05:02:12.013Z,4.90
2023-02-14T05:04:39.499Z,4.92
2023-02-14T05:07:06.307Z,4.86
2023-02-14T05:09:33.142Z,4.89
2023-02-14T05:11:59.837Z,5.00
2023-02-14T05:14:26.723Z,4.90
2023-02-14T05:16:53.571Z,5.17
2023-02-14T05:19:20.313Z,5.08
2023-02-14T05:21:47.178Z,5.06
2023-02-14T05:24:13.880Z,5.09
2023-02-14T05:26:41.104Z,4.93
2023-02-14T05:29:08.176Z,4.99
2023-02-14T05:31:35.095Z,5.03
2023-02-14T05:34:01.988Z,4.89
2023-02-14T05:36:28.826Z,4.80
2023-02-14T05:38:55.563Z,4.82
2023-02-14T05:41:24.039Z,4.81
2023-02-14T05:43:51.089Z,4.80
2023-02-14T05:46:18.969Z,4.80
2023-02-14T05:48:46.485Z,4.77
2023-02-14T05:51:13.931Z,4.73
2023-02-14T05:53:40.907Z,4.74
2023-02-14T05:56:08.036Z,4.78
2023-02-14T05:58:34.829Z,4.76
2023-02-14T06:01:02.069Z,4.81
2023-02-14T06:03:28.999Z,4.98
2023-02-14T06:05:55.769Z,5.07
2023-02-14T06:08:22.764Z,4.99
2023-02-14T06:10:49.552Z,4.87
2023-02-14T06:13:16.271Z,4.81
2023-02-14T06:15:43.086Z,4.82
2023-02-14T06:18:09.950Z,4.80
2023-02-14T06:20:36.885Z,4.81
2023-02-14T06:23:03.664Z,4.80
2023-02-14T06:25:30.552Z,4.78
2023-02-14T06:27:58.734Z,4.81
2023-02-14T06:30:25.917Z,4.75
2023-02-14T06:32:53.177Z,5.08
2023-02-14T06:35:21.355Z,4.95
2023-02-14T06:37:48.364Z,4.86
2023-02-14T06:40:15.173Z,4.97
2023-02-14T06:42:41.932Z,4.93
2023-02-14T06:45:09.320Z,5.05
2023-02-14T06:47:36.128Z,5.02
2023-02-14T06:50:05.170Z,4.93
2023-02-14T06:52:33.255Z,4.86
2023-02-14T06:55:00.100Z,4.84
2023-02-14T06:57:27.036Z,4.83
2023-02-14T06:59:54.031Z,4.86
2023-02-14T07:02:22.824Z,5.21
2023-02-14T07:04:51.136Z,5.29
2023-02-14T07:07:17.905Z,5.24
2023-02-14T07:09:44.808Z,5.10
2023-02-14T07:12:11.598Z,4.95
2023-02-14T07:14:38.372Z,5.03
2023-02-14T07:17:05.176Z,4.93
2023-02-14T07:19:31.928Z,5.08
2023-02-14T07:21:58.636Z,5.05
2023-02-14T07:24:25.527Z,5.01
2023-02-14T07:26:52.387Z,5.05
2023-02-14T07:29:19.160Z,5.01
2023-02-14T07:31:46.048Z,5.15
2023-02-14T07:34:13.012Z,5.22
2023-02-14T07:36:39.886Z,5.20
2023-02-14T07:39:06.692Z,5.35
2023-02-14T07:41:33.560Z,5.34
2023-02-14T07:44:00.310Z,5.30
2023-02-14T07:46:27.183Z,5.32
2023-02-14T07:48:54.103Z,5.39
2023-02-14T07:51:20.923Z,5.43
2023-02-14T07:53:48.472Z,5.56
2023-02-14T07:56:15.245Z,5.49
2023-02-14T07:58:42.076Z,5.39
2023-02-14T08:01:08.953Z,5.47
2023-02-14T08:03:35.669Z,5.57
2023-02-14T08:06:02.430Z,5.52
2023-02-14T08:08:30.963Z,5.48
2023-02-14T08:10:58.432Z,5.45
2023-02-14T08:13:26.062Z,5.55
2023-02-14T08:16:05.414Z,5.53
2023-02-14T08:18:35.638Z,5.65
2023-02-14T08:21:02.947Z,5.64
2023-02-14T08:23:29.951Z,5.61
2023-02-14T08:25:57.115Z,5.64
2023-02-14T08:28:24.132Z,5.64
2023-02-14T08:30:51.523Z,5.85
2023-02-14T08:33:18.966Z,5.82
2023-02-14T08:35:45.901Z,5.85
2023-02-14T08:38:12.929Z,5.81
2023-02-14T08:40:39.792Z,5.92
2023-02-14T08:43:07.458Z,6.00
2023-02-14T08:45:34.761Z,6.13
2023-02-14T08:48:10.251Z,6.04
2023-02-14T08:50:38.139Z,6.03
2023-02-14T08:53:09.603Z,6.09
2023-02-14T08:55:36.907Z,6.08
2023-02-14T08:58:04.134Z,6.13
2023-02-14T09:00:32.331Z,6.07
2023-02-14T09:02:59.740Z,6.12
2023-02-14T09:05:27.006Z,6.17
2023-02-14T09:07:56.432Z,6.19
2023-02-14T09:10:24.793Z,6.11
2023-02-14T09:12:52.063Z,6.21
2023-02-14T09:15:19.031Z,6.24
2023-02-14T09:17:46.648Z,6.38
2023-02-14T09:20:15.517Z,6.49
2023-02-14T09:22:42.347Z,6.50
2023-02-14T09:25:09.867Z,6.47
2023-02-14T09:27:36.998Z,6.38
2023-02-14T09:30:05.974Z,6.70
2023-02-14T09:32:32.939Z,6.48
2023-02-14T09:35:00.312Z,6.59
2023-02-14T09:37:27.127Z,6.72
2023-02-14T09:39:53.831Z,6.59
2023-02-14T09:42:49.357Z,6.72
2023-02-14T09:45:21.560Z,6.69
2023-02-14T09:47:57.378Z,6.62
2023-02-14T09:50:30.343Z,6.71
2023-02-14T09:53:00.998Z,6.72
2023-02-14T09:55:37.283Z,6.76
2023-02-14T09:58:17.585Z,6.58
2023-02-14T10:01:00.493Z,6.71
2023-02-14T10:03:49.293Z,6.73
2023-02-14T10:06:40.655Z,6.93
2023-02-14T10:09:39.237Z,6.50
2023-02-14T10:12:14.456Z,6.81
2023-02-14T10:14:41.461Z,6.82
2023-02-14T10:17:14.334Z,6.91
2023-02-14T10:19:48.406Z,6.91
2023-02-14T10:22:18.472Z,6.98
2023-02-14T10:25:06.756Z,7.20
2023-02-14T10:27:33.435Z,7.32
2023-02-14T10:30:00.460Z,6.96
2023-02-14T10:32:51.495Z,7.01
2023-02-14T10:35:43.184Z,6.98
2023-02-14T10:38:30.179Z,6.92
2023-02-14T10:41:15.533Z,7.01
2023-02-14T10:44:00.735Z,7.26
2023-02-14T10:46:33.371Z,7.23
2023-02-14T10:49:00.041Z,7.24
2023-02-14T10:51:35.985Z,7.26
2023-02-14T10:54:22.963Z,7.23
2023-02-14T10:57:00.544Z,7.25
2023-02-14T10:59:42.636Z,7.18
2023-02-14T11:02:14.395Z,7.40
2023-02-14T11:04:42.238Z,7.38
2023-02-14T11:07:17.342Z,7.31
2023-02-14T11:09:44.423Z,7.50
2023-02-14T11:12:11.353Z,7.47
2023-02-14T11:14:40.044Z,7.53
2023-02-14T11:17:30.995Z,7.36
2023-02-14T11:20:06.438Z,7.49
2023-02-14T11:22:35.274Z,7.64
2023-02-14T11:25:08.406Z,7.66
2023-02-14T11:27:37.938Z,7.41
2023-02-14T11:30:18.771Z,7.44
2023-02-14T11:32:55.174Z,7.59
2023-02-14T11:35:27.550Z,7.82
2023-02-14T11:37:56.678Z,7.71
2023-02-14T11:40:38.415Z,7.76
2023-02-14T11:43:14.300Z,7.91
2023-02-14T11:45:43.649Z,8.06
2023-02-14T11:48:36.826Z,7.87
2023-02-14T11:51:11.128Z,7.83
2023-02-14T11:53:40.837Z,7.93
2023-02-14T11:56:07.650Z,7.81
2023-02-14T11:58:37.565Z,8.00
2023-02-14T12:01:05.340Z,7.98
2023-02-14T12:03:45.153Z,7.96
2023-02-14T12:06:13.701Z,7.98
2023-02-14T12:08:42.055Z,8.03
2023-02-14T12:11:19.333Z,7.88
2023-02-14T12:13:53.836Z,8.15
2023-02-14T12:16:29.165Z,8.23
2023-02-14T12:19:17.459Z,7.94
2023-02-14T12:21:55.278Z,7.79
2023-02-14T12:24:30.827Z,7.74
2023-02-14T12:27:04.704Z,7.73
2023-02-14T12:29:44.924Z,8.06
2023-02-14T12:32:32.761Z,7.84
2023-02-14T12:35:22.132Z,8.02
2023-02-14T12:38:09.388Z,8.17
2023-02-14T12:41:11.047Z,8.08
2023-02-14T12:43:52.611Z,7.91
2023-02-14T12:46:41.368Z,7.85
2023-02-14T12:49:26.220Z,8.10
2023-02-14T12:52:38.927Z,7.82
2023-02-14T12:55:35.103Z,7.83
2023-02-14T12:58:30.664Z,8.07
2023-02-14T13:01:32.872Z,7.93
2023-02-14T13:04:08.999Z,7.68
2023-02-14T13:06:48.101Z,7.74
2023-02-14T13:09:18.988Z,7.83
2023-02-14T13:12:16.171Z,7.94
2023-02-14T13:15:08.608Z,7.87
2023-02-14T13:17:53.033Z,7.95
2023-02-14T13:20:44.750Z,8.20
2023-02-14T13:23:31.618Z,8.08
2023-02-14T13:26:27.266Z,8.22
2023-02-14T13:29:12.330Z,8.19
2023-02-14T13:31:47.131Z,8.03
2023-02-14T13:34:39.183Z,8.10
2023-02-14T13:37:11.999Z,8.23
2023-02-14T13:39:52.819Z,8.19
2023-02-14T13:42:49.568Z,8.00
2023-02-14T13:45:41.663Z,7.95
2023-02-14T13:48:17.812Z,7.92
2023-02-14T13:51:04.941Z,8.01
2023-02-14T13:53:45.880Z,8.11
2023-02-14T13:56:14.107Z,8.18
2023-02-14T13:59:11.218Z,8.27
2023-02-14T14:01:51.094Z,8.12
2023-02-14T14:04:28.925Z,8.20
2023-02-14T14:07:25.327Z,8.33
2023-02-14T14:12:43.299Z,8.43
2023-02-14T14:15:18.319Z,8.24
2023-02-14T14:18:07.831Z,8.17
2023-02-14T14:20:45.162Z,8.34
2023-02-14T14:23:34.303Z,8.36
2023-02-14T14:29:28.748Z,8.17
2023-02-14T14:32:03.033Z,8.33
2023-02-14T14:34:35.115Z,8.35
2023-02-14T14:37:30.553Z,8.15
2023-02-14T14:40:49.240Z,8.12
2023-02-14T14:43:39.870Z,8.10
2023-02-14T14:46:11.385Z,8.20
2023-02-14T14:48:43.121Z,8.23
2023-02-14T14:51:22.581Z,8.10
2023-02-14T14:53:57.306Z,7.90
2023-02-14T14:56:27.229Z,8.07
2023-02-14T14:58:54.531Z,8.13
2023-02-14T15:01:48.536Z,7.99
2023-02-14T15:04:19.530Z,7.89
2023-02-14T15:06:47.412Z,8.17
2023-02-14T15:09:31.481Z,7.97
2023-02-14T15:12:21.227Z,7.82
2023-02-14T15:14:54.791Z,7.89
2023-02-14T15:17:25.877Z,7.92
2023-02-14T15:20:00.589Z,8.13
2023-02-14T15:22:30.259Z,8.13
2023-02-14T15:24:58.099Z,7.74
2023-02-14T15:27:27.090Z,7.72
2023-02-14T15:30:01.960Z,7.78
2023-02-14T15:32:32.850Z,7.74
2023-02-14T15:35:03.227Z,7.78
2023-02-14T15:37:30.435Z,7.65
2023-02-14T15:39:58.353Z,7.68
2023-02-14T15:42:29.861Z,7.53
2023-02-14T15:45:27.900Z,7.57
2023-02-14T15:48:05.404Z,7.40
2023-02-14T15:50:42.948Z,7.38
2023-02-14T15:53:29.321Z,7.40
2023-02-14T15:56:03.838Z,7.33
2023-02-14T15:58:32.594Z,7.30
2023-02-14T16:01:00.177Z,7.28
2023-02-14T16:03:30.798Z,7.30
2023-02-14T16:05:57.624Z,6.87
2023-02-14T16:08:41.130Z,6.89
2023-02-14T16:11:26.423Z,6.71
2023-02-14T16:13:53.594Z,6.56
2023-02-14T16:16:20.282Z,6.18
2023-02-14T16:18:53.271Z,6.30
2023-02-14T16:21:28.638Z,6.22
2023-02-14T16:24:15.788Z,6.11
2023-02-14T16:26:44.525Z,6.04
2023-02-14T16:29:13.189Z,6.04
2023-02-14T16:34:41.928Z,5.77
2023-02-14T16:37:22.161Z,5.71
2023-02-14T16:39:51.784Z,5.61
2023-02-14T16:42:18.971Z,5.75
2023-02-14T16:44:47.009Z,5.49
2023-02-14T16:47:15.271Z,5.59
2023-02-14T16:49:42.228Z,5.45
2023-02-14T16:52:23.782Z,5.41
2023-02-14T16:54:50.950Z,5.46
2023-02-14T16:57:27.713Z,5.23
2023-02-14T16:59:56.206Z,5.14
2023-02-14T17:02:23.047Z,5.12
2023-02-14T17:04:49.821Z,5.15
2023-02-14T17:07:16.677Z,5.25
2023-02-14T17:09:48.357Z,5.14
2023-02-14T17:12:20.828Z,5.15
2023-02-14T17:14:51.475Z,5.11
2023-02-14T17:17:18.331Z,5.04
2023-02-14T17:19:45.206Z,4.84
2023-02-14T17:22:13.567Z,4.80
2023-02-14T17:24:41.109Z,4.76
2023-02-14T17:27:08.736Z,4.82
2023-02-14T17:29:35.639Z,4.66
2023-02-14T17:32:02.580Z,4.61
2023-02-14T17:34:33.363Z,4.68
2023-02-14T17:37:00.106Z,4.61
2023-02-14T17:39:26.867Z,4.45
2023-02-14T17:41:53.572Z,4.39
2023-02-14T17:44:20.960Z,4.41
2023-02-14T17:46:47.764Z,4.37
2023-02-14T17:49:14.618Z,4.35
2023-02-14T17:51:41.502Z,4.35
2023-02-14T17:54:08.217Z,4.28
2023-02-14T17:56:34.970Z,4.36
2023-02-14T17:59:01.611Z,4.19
2023-02-14T18:01:31.612Z,4.10
2023-02-14T18:03:58.671Z,4.12
2023-02-14T18:06:26.721Z,4.10
2023-02-14T18:08:56.759Z,4.11
2023-02-14T18:11:26.162Z,4.11
2023-02-14T18:13:58.146Z,4.07
2023-02-14T18:16:25.417Z,4.02
2023-02-14T18:18:52.370Z,4.01
2023-02-14T18:21:24.472Z,4.01
2023-02-14T18:23:51.947Z,3.99
2023-02-14T18:26:19.658Z,3.94
2023-02-14T18:28:46.353Z,4.01
2023-02-14T18:31:16.399Z,3.86
2023-02-14T18:33:43.904Z,3.90
2023-02-14T18:36:14.110Z,3.80
2023-02-14T18:38:42.520Z,3.88
2023-02-14T18:41:15.193Z,3.95
2023-02-14T18:43:42.414Z,3.91
2023-02-14T18:46:21.992Z,3.71
2023-02-14T18:48:49.368Z,3.64
2023-02-14T18:51:19.496Z,3.53
2023-02-14T18:53:47.510Z,3.44
2023-02-14T18:56:17.177Z,3.40
2023-02-14T18:58:47.642Z,3.15
2023-02-14T19:01:22.693Z,3.12
2023-02-14T19:03:50.893Z,3.05
2023-02-14T19:06:18.182Z,3.03
2023-02-14T19:08:45.403Z,3.02
2023-02-14T19:11:14.404Z,2.86
2023-02-14T19:13:45.937Z,2.66
2023-02-14T19:16:15.096Z,2.62
2023-02-14T19:18:41.883Z,2.46
2023-02-14T19:21:16.168Z,2.52
2023-02-14T19:23:43.457Z,2.55
2023-02-14T19:26:14.753Z,2.50
2023-02-14T19:28:43.289Z,2.44
2023-02-14T19:31:10.590Z,2.40
2023-02-14T19:33:42.930Z,2.37
2023-02-14T19:36:14.461Z,2.26
2023-02-14T19:38:42.680Z,1.95
2023-02-14T19:41:39.594Z,1.84
2023-02-14T19:44:09.414Z,1.77
2023-02-14T19:46:38.246Z,1.99
2023-02-14T19:49:05.310Z,2.09
2023-02-14T19:51:35.920Z,1.92
2023-02-14T19:54:05.744Z,1.91
2023-02-14T19:56:34.708Z,1.98
2023-02-14T19:59:07.690Z,1.96
2023-02-14T20:01:42.255Z,1.96
2023-02-14T20:04:12.116Z,1.84
2023-02-14T20:06:38.811Z,1.85
2023-02-14T20:09:06.638Z,1.84
2023-02-14T20:11:50.893Z,1.86
2023-02-14T20:14:29.411Z,1.87
2023-02-14T20:16:57.819Z,1.84
2023-02-14T20:19:27.782Z,1.81
2023-02-14T20:21:55.108Z,1.50
2023-02-14T20:24:32.184Z,1.47
2023-02-14T20:27:00.530Z,1.56
2023-02-14T20:29:27.473Z,1.62
2023-02-14T20:32:01.479Z,1.58
2023-02-14T20:34:28.520Z,1.59
2023-02-14T20:36:56.139Z,1.60
2023-02-14T20:39:30.906Z,1.71
2023-02-14T20:41:57.893Z,1.63
2023-02-14T20:44:24.755Z,1.61
2023-02-14T20:46:53.826Z,1.33
2023-02-14T20:49:22.145Z,1.30
2023-02-14T20:51:49.836Z,1.42
2023-02-14T20:54:20.693Z,1.40
2023-02-14T20:56:48.318Z,1.44
2023-02-14T20:59:15.114Z,1.44
2023-02-14T21:01:41.832Z,1.36
2023-02-14T21:04:08.642Z,1.34
2023-02-14T21:06:36.051Z,1.29
2023-02-14T21:09:04.235Z,1.15
2023-02-14T21:11:31.053Z,1.09
2023-02-14T21:14:00.164Z,1.00
2023-02-14T21:16:28.576Z,1.06
2023-02-14T21:18:59.268Z,1.14
2023-02-14T21:21:36.139Z,1.16
2023-02-14T21:24:08.780Z,1.26
2023-02-14T21:26:36.120Z,1.24
2023-02-14T21:29:03.063Z,1.12
2023-02-14T21:31:29.913Z,1.03
2023-02-14T21:33:58.860Z,1.02
2023-02-14T21:36:28.322Z,0.87
2023-02-14T21:38:58.258Z,0.96
2023-02-14T21:41:27.676Z,1.02
2023-02-14T21:43:56.468Z,1.09
2023-02-14T21:46:27.449Z,1.11
2023-02-14T21:49:13.866Z,1.15
2023-02-14T21:51:41.491Z,1.14
2023-02-14T21:54:09.388Z,1.16
2023-02-14T21:56:37.197Z,1.08
2023-02-14T21:59:04.569Z,1.04
2023-02-14T22:01:34.162Z,0.93
2023-02-14T22:04:01.646Z,0.84
2023-02-14T22:06:28.680Z,0.69
2023-02-14T22:08:57.129Z,0.58
2023-02-14T22:11:26.577Z,0.78
2023-02-14T22:13:53.442Z,0.78
2023-02-14T22:16:21.570Z,0.82
2023-02-14T22:18:48.751Z,0.79
2023-02-14T22:21:18.664Z,0.86
2023-02-14T22:23:45.532Z,0.83
2023-02-14T22:26:23.152Z,0.85
2023-02-14T22:28:51.622Z,0.94
2023-02-14T22:31:19.587Z,0.99
2023-02-14T22:33:47.357Z,0.99
2023-02-14T22:36:14.466Z,0.99
2023-02-14T22:38:41.493Z,1.03
2023-02-14T22:41:17.243Z,1.01
2023-02-14T22:43:44.322Z,1.00
2023-02-14T22:46:17.428Z,0.97
2023-02-14T22:48:44.648Z,0.95
2023-02-14T22:51:12.736Z,0.99
2023-02-14T22:53:39.569Z,0.91
2023-02-14T22:56:17.371Z,0.95
2023-02-14T22:58:44.373Z,0.91
2023-02-14T23:01:20.739Z,0.92
2023-02-14T23:03:48.966Z,0.89
2023-02-14T23:06:15.761Z,0.92
2023-02-14T23:08:44.684Z,0.95
2023-02-14T23:11:17.988Z,0.88
2023-02-14T23:14:03.682Z,0.87
2023-02-14T23:16:49.552Z,0.83
2023-02-14T23:19:40.875Z,0.84
2023-02-14T23:22:09.312Z,0.79
2023-02-14T23:24:36.250Z,0.74
2023-02-14T23:27:03.599Z,0.72
2023-02-14T23:29:30.620Z,0.66
2023-02-14T23:31:57.733Z,0.66
2023-02-14T23:34:26.300Z,0.84
2023-02-14T23:36:53.290Z,0.75
2023-02-14T23:39:20.452Z,0.75
2023-02-14T23:41:47.200Z,0.80
2023-02-14T23:44:19.817Z,0.71
2023-02-14T23:46:52.137Z,0.75
2023-02-14T23:49:19.670Z,0.83
2023-02-14T23:51:47.832Z,0.93
2023-02-14T23:54:14.918Z,1.27
2023-02-14T23:56:42.046Z,1.50
2023-02-14T23:59:10.070Z,1.52
